sensor_id;sensor_type;location;lat;lon;timestamp;P1;durP1;ratioP1;P2;durP2;ratioP2
54557;SDS011;40452;50.080;20.040;2023-08-21T02:58:46;16.80;;;13.27;;
54557;SDS011;40452;50.080;20.040;2023-08-21T03:01:12;15.73;;;12.60;;
54557;SDS011;40452;50.080;20.040;2023-08-21T03:03:38;14.75;;;12.77;;
54557;SDS011;40452;50.080;20.040;2023-08-21T03:06:03;16.60;;;12.30;;
54557;SDS011;40452;50.080;20.040;2023-08-21T03:08:29;14.65;;;12.55;;
54557;SDS011;40452;50.080;20.040;2023-08-21T03:10:54;13.20;;;11.82;;
54557;SDS011;40452;50.080;20.040;2023-08-21T03:13:20;14.63;;;12.90;;
54557;SDS011;40452;50.080;20.040;2023-08-21T03:15:46;15.85;;;11.88;;
54557;SDS011;40452;50.080;20.040;2023-08-21T03:18:11;17.05;;;12.10;;
54557;SDS011;40452;50.080;20.040;2023-08-21T03:20:37;14.38;;;12.23;;
54557;SDS011;40452;50.080;20.040;2023-08-21T03:23:02;15.32;;;11.93;;
54557;SDS011;40452;50.080;20.040;2023-08-21T03:25:28;13.02;;;11.70;;
54557;SDS011;40452;50.080;20.040;2023-08-21T03:27:54;13.68;;;11.13;;
54557;SDS011;40452;50.080;20.040;2023-08-21T03:30:19;15.88;;;11.23;;
54557;SDS011;40452;50.080;20.040;2023-08-21T03:32:45;14.48;;;11.82;;
54557;SDS011;40452;50.080;20.040;2023-08-21T03:35:10;18.95;;;12.05;;
54557;SDS011;40452;50.080;20.040;2023-08-21T03:37:36;13.75;;;11.98;;
54557;SDS011;40452;50.080;20.040;2023-08-21T03:40:02;19.63;;;12.07;;
54557;SDS011;40452;50.080;20.040;2023-08-21T03:42:31;14.80;;;11.70;;
54557;SDS011;40452;50.080;20.040;2023-08-21T03:44:57;14.13;;;11.73;;
54557;SDS011;40452;50.080;20.040;2023-08-21T03:47:23;17.98;;;11.77;;
54557;SDS011;40452;50.080;20.040;2023-08-21T03:49:48;14.85;;;12.13;;
54557;SDS011;40452;50.080;20.040;2023-08-21T03:52:14;15.57;;;12.02;;
54557;SDS011;40452;50.080;20.040;2023-08-21T03:54:39;15.95;;;11.82;;
54557;SDS011;40452;50.080;20.040;2023-08-21T03:57:05;17.13;;;11.80;;
54557;SDS011;40452;50.080;20.040;2023-08-21T03:59:32;16.58;;;12.60;;
54557;SDS011;40452;50.080;20.040;2023-08-21T04:02:00;14.65;;;11.32;;
54557;SDS011;40452;50.080;20.040;2023-08-21T04:04:26;16.40;;;11.77;;
54557;SDS011;40452;50.080;20.040;2023-08-21T04:06:51;16.08;;;12.40;;
54557;SDS011;40452;50.080;20.040;2023-08-21T04:09:17;16.55;;;11.80;;
54557;SDS011;40452;50.080;20.040;2023-08-21T04:11:42;16.00;;;11.93;;
54557;SDS011;40452;50.080;20.040;2023-08-21T04:14:08;14.82;;;12.18;;
54557;SDS011;40452;50.080;20.040;2023-08-21T04:16:34;17.17;;;12.98;;
54557;SDS011;40452;50.080;20.040;2023-08-21T04:18:59;17.13;;;13.20;;
54557;SDS011;40452;50.080;20.040;2023-08-21T04:21:25;15.60;;;12.98;;
54557;SDS011;40452;50.080;20.040;2023-08-21T04:23:50;18.10;;;12.20;;
54557;SDS011;40452;50.080;20.040;2023-08-21T04:26:16;17.33;;;13.05;;
54557;SDS011;40452;50.080;20.040;2023-08-21T04:28:42;15.05;;;12.38;;
54557;SDS011;40452;50.080;20.040;2023-08-21T04:31:07;13.40;;;11.57;;
54557;SDS011;40452;50.080;20.040;2023-08-21T04:33:33;14.45;;;11.43;;
54557;SDS011;40452;50.080;20.040;2023-08-21T04:35:59;16.00;;;11.88;;
54557;SDS011;40452;50.080;20.040;2023-08-21T04:38:25;13.43;;;11.32;;
54557;SDS011;40452;50.080;20.040;2023-08-21T04:40:51;15.18;;;11.50;;
54557;SDS011;40452;50.080;20.040;2023-08-21T04:43:19;14.02;;;11.50;;
54557;SDS011;40452;50.080;20.040;2023-08-21T04:45:48;16.58;;;11.98;;
54557;SDS011;40452;50.080;20.040;2023-08-21T04:48:14;13.73;;;11.75;;
54557;SDS011;40452;50.080;20.040;2023-08-21T04:50:40;16.85;;;13.30;;
54557;SDS011;40452;50.080;20.040;2023-08-21T04:53:05;14.05;;;12.57;;
54557;SDS011;40452;50.080;20.040;2023-08-21T04:55:31;14.93;;;11.95;;
54557;SDS011;40452;50.080;20.040;2023-08-21T04:57:56;12.75;;;11.32;;
54557;SDS011;40452;50.080;20.040;2023-08-21T05:00:22;14.73;;;11.70;;
54557;SDS011;40452;50.080;20.040;2023-08-21T05:02:48;14.27;;;11.95;;
54557;SDS011;40452;50.080;20.040;2023-08-21T05:05:13;13.48;;;11.63;;
54557;SDS011;40452;50.080;20.040;2023-08-21T05:07:39;16.33;;;12.75;;
54557;SDS011;40452;50.080;20.040;2023-08-21T05:10:05;15.25;;;12.18;;
54557;SDS011;40452;50.080;20.040;2023-08-21T05:12:31;13.68;;;11.73;;
54557;SDS011;40452;50.080;20.040;2023-08-21T05:14:56;13.23;;;11.73;;
54557;SDS011;40452;50.080;20.040;2023-08-21T05:17:23;17.58;;;12.57;;
54557;SDS011;40452;50.080;20.040;2023-08-21T05:19:50;13.85;;;11.93;;
54557;SDS011;40452;50.080;20.040;2023-08-21T05:22:16;17.75;;;12.55;;
54557;SDS011;40452;50.080;20.040;2023-08-21T05:24:41;14.60;;;12.63;;
54557;SDS011;40452;50.080;20.040;2023-08-21T05:27:07;22.17;;;12.20;;
54557;SDS011;40452;50.080;20.040;2023-08-21T05:29:32;18.10;;;13.90;;
54557;SDS011;40452;50.080;20.040;2023-08-21T05:31:59;30.85;;;19.20;;
54557;SDS011;40452;50.080;20.040;2023-08-21T14:45:28;20.13;;;12.50;;
54557;SDS011;40452;50.080;20.040;2023-08-21T14:47:53;15.80;;;11.02;;
54557;SDS011;40452;50.080;20.040;2023-08-21T14:50:19;18.13;;;10.82;;
54557;SDS011;40452;50.080;20.040;2023-08-21T14:52:45;14.73;;;11.32;;
54557;SDS011;40452;50.080;20.040;2023-08-21T14:55:12;17.52;;;11.38;;
54557;SDS011;40452;50.080;20.040;2023-08-21T14:57:38;14.73;;;11.45;;
54557;SDS011;40452;50.080;20.040;2023-08-21T15:00:04;18.25;;;11.68;;
54557;SDS011;40452;50.080;20.040;2023-08-21T15:02:30;15.15;;;10.27;;
54557;SDS011;40452;50.080;20.040;2023-08-21T15:04:55;12.52;;;10.05;;
54557;SDS011;40452;50.080;20.040;2023-08-21T15:07:21;16.55;;;10.20;;
54557;SDS011;40452;50.080;20.040;2023-08-21T15:09:47;13.93;;;10.68;;
54557;SDS011;40452;50.080;20.040;2023-08-21T15:12:12;14.77;;;10.18;;
54557;SDS011;40452;50.080;20.040;2023-08-21T15:14:38;17.15;;;10.13;;
54557;SDS011;40452;50.080;20.040;2023-08-21T15:17:03;16.45;;;10.90;;
54557;SDS011;40452;50.080;20.040;2023-08-21T15:19:29;16.58;;;9.73;;
54557;SDS011;40452;50.080;20.040;2023-08-21T15:21:55;17.00;;;10.60;;
54557;SDS011;40452;50.080;20.040;2023-08-21T15:24:20;17.10;;;9.48;;
54557;SDS011;40452;50.080;20.040;2023-08-21T15:26:47;12.27;;;9.73;;
54557;SDS011;40452;50.080;20.040;2023-08-21T15:29:12;15.80;;;10.05;;
54557;SDS011;40452;50.080;20.040;2023-08-21T15:31:38;22.83;;;15.18;;
54557;SDS011;40452;50.080;20.040;2023-08-21T15:34:03;25.35;;;17.45;;
54557;SDS011;40452;50.080;20.040;2023-08-21T15:36:29;18.70;;;15.13;;
54557;SDS011;40452;50.080;20.040;2023-08-21T15:38:54;17.45;;;13.15;;
54557;SDS011;40452;50.080;20.040;2023-08-21T15:41:20;16.33;;;13.25;;
54557;SDS011;40452;50.080;20.040;2023-08-21T15:43:46;14.90;;;12.48;;
54557;SDS011;40452;50.080;20.040;2023-08-21T15:46:11;20.10;;;12.18;;
54557;SDS011;40452;50.080;20.040;2023-08-21T15:48:37;21.55;;;11.20;;
54557;SDS011;40452;50.080;20.040;2023-08-21T15:51:02;15.43;;;11.35;;
54557;SDS011;40452;50.080;20.040;2023-08-21T15:53:28;13.23;;;11.13;;
54557;SDS011;40452;50.080;20.040;2023-08-21T15:55:53;13.15;;;11.25;;
54557;SDS011;40452;50.080;20.040;2023-08-21T15:58:19;16.60;;;11.77;;
54557;SDS011;40452;50.080;20.040;2023-08-21T16:00:45;14.77;;;11.32;;
54557;SDS011;40452;50.080;20.040;2023-08-21T16:03:10;12.63;;;11.32;;
54557;SDS011;40452;50.080;20.040;2023-08-21T16:05:36;15.00;;;10.45;;
54557;SDS011;40452;50.080;20.040;2023-08-21T16:08:01;14.75;;;10.45;;
54557;SDS011;40452;50.080;20.040;2023-08-21T16:10:29;16.60;;;11.00;;
54557;SDS011;40452;50.080;20.040;2023-08-21T16:12:54;17.10;;;10.88;;
54557;SDS011;40452;50.080;20.040;2023-08-21T16:15:20;18.38;;;10.27;;
54557;SDS011;40452;50.080;20.040;2023-08-21T16:17:46;14.95;;;10.55;;
54557;SDS011;40452;50.080;20.040;2023-08-21T16:20:13;14.38;;;10.90;;
54557;SDS011;40452;50.080;20.040;2023-08-21T16:22:40;13.30;;;11.27;;
54557;SDS011;40452;50.080;20.040;2023-08-21T16:25:06;14.77;;;11.77;;
54557;SDS011;40452;50.080;20.040;2023-08-21T16:27:32;14.02;;;12.05;;
54557;SDS011;40452;50.080;20.040;2023-08-21T16:29:58;19.45;;;12.93;;
54557;SDS011;40452;50.080;20.040;2023-08-21T16:32:23;17.42;;;12.45;;
54557;SDS011;40452;50.080;20.040;2023-08-21T16:34:49;14.88;;;12.85;;
54557;SDS011;40452;50.080;20.040;2023-08-21T16:37:14;15.52;;;12.25;;
54557;SDS011;40452;50.080;20.040;2023-08-21T16:39:41;14.23;;;12.20;;
54557;SDS011;40452;50.080;20.040;2023-08-21T16:42:06;19.27;;;12.95;;
54557;SDS011;40452;50.080;20.040;2023-08-21T16:44:32;16.58;;;12.02;;
54557;SDS011;40452;50.080;20.040;2023-08-21T16:46:58;14.65;;;12.52;;
54557;SDS011;40452;50.080;20.040;2023-08-21T16:49:23;16.38;;;12.57;;
54557;SDS011;40452;50.080;20.040;2023-08-21T16:51:49;14.75;;;12.27;;
54557;SDS011;40452;50.080;20.040;2023-08-21T16:54:14;16.25;;;11.82;;
54557;SDS011;40452;50.080;20.040;2023-08-21T16:56:40;13.82;;;12.35;;
54557;SDS011;40452;50.080;20.040;2023-08-21T16:59:06;18.30;;;12.35;;
54557;SDS011;40452;50.080;20.040;2023-08-21T17:01:34;22.17;;;12.27;;
54557;SDS011;40452;50.080;20.040;2023-08-21T17:04:00;16.58;;;12.55;;
54557;SDS011;40452;50.080;20.040;2023-08-21T17:06:25;17.02;;;12.02;;
54557;SDS011;40452;50.080;20.040;2023-08-21T17:08:51;22.77;;;12.05;;
54557;SDS011;40452;50.080;20.040;2023-08-21T17:11:16;16.58;;;11.75;;
54557;SDS011;40452;50.080;20.040;2023-08-21T17:13:42;13.52;;;12.00;;
54557;SDS011;40452;50.080;20.040;2023-08-21T17:16:10;19.88;;;12.50;;
54557;SDS011;40452;50.080;20.040;2023-08-21T17:18:36;20.08;;;12.40;;
54557;SDS011;40452;50.080;20.040;2023-08-21T17:21:02;16.63;;;11.93;;
54557;SDS011;40452;50.080;20.040;2023-08-21T17:23:28;16.90;;;12.10;;
54557;SDS011;40452;50.080;20.040;2023-08-21T17:25:54;22.02;;;12.68;;
54557;SDS011;40452;50.080;20.040;2023-08-21T17:28:19;17.55;;;12.07;;
54557;SDS011;40452;50.080;20.040;2023-08-21T17:30:45;16.85;;;11.93;;
54557;SDS011;40452;50.080;20.040;2023-08-21T17:33:10;17.10;;;12.35;;
54557;SDS011;40452;50.080;20.040;2023-08-21T17:35:36;15.73;;;11.48;;
54557;SDS011;40452;50.080;20.040;2023-08-21T17:38:01;14.45;;;11.52;;
54557;SDS011;40452;50.080;20.040;2023-08-21T17:40:28;17.60;;;11.90;;
54557;SDS011;40452;50.080;20.040;2023-08-21T17:42:54;15.15;;;11.88;;
54557;SDS011;40452;50.080;20.040;2023-08-21T17:45:19;14.75;;;11.48;;
54557;SDS011;40452;50.080;20.040;2023-08-21T17:47:45;15.68;;;11.73;;
54557;SDS011;40452;50.080;20.040;2023-08-21T17:50:10;13.85;;;10.75;;
54557;SDS011;40452;50.080;20.040;2023-08-21T17:52:36;14.98;;;11.30;;
54557;SDS011;40452;50.080;20.040;2023-08-21T17:55:01;15.18;;;12.15;;
54557;SDS011;40452;50.080;20.040;2023-08-21T17:57:28;14.95;;;11.40;;
54557;SDS011;40452;50.080;20.040;2023-08-21T17:59:53;15.00;;;11.32;;
54557;SDS011;40452;50.080;20.040;2023-08-21T18:02:19;15.30;;;11.63;;
54557;SDS011;40452;50.080;20.040;2023-08-21T18:04:45;14.38;;;10.50;;
54557;SDS011;40452;50.080;20.040;2023-08-21T18:07:11;16.83;;;11.32;;
54557;SDS011;40452;50.080;20.040;2023-08-21T18:09:37;15.77;;;11.20;;
54557;SDS011;40452;50.080;20.040;2023-08-21T18:12:03;14.38;;;11.73;;
54557;SDS011;40452;50.080;20.040;2023-08-21T18:14:29;15.68;;;11.48;;
54557;SDS011;40452;50.080;20.040;2023-08-21T18:16:55;17.70;;;12.50;;
54557;SDS011;40452;50.080;20.040;2023-08-21T18:19:28;16.17;;;11.70;;
54557;SDS011;40452;50.080;20.040;2023-08-21T18:21:54;20.92;;;12.88;;
54557;SDS011;40452;50.080;20.040;2023-08-21T18:24:20;17.55;;;11.63;;
54557;SDS011;40452;50.080;20.040;2023-08-21T18:26:45;14.48;;;11.52;;
54557;SDS011;40452;50.080;20.040;2023-08-21T18:29:11;12.40;;;11.00;;
54557;SDS011;40452;50.080;20.040;2023-08-21T18:31:39;15.10;;;11.35;;
54557;SDS011;40452;50.080;20.040;2023-08-21T18:34:05;21.85;;;11.73;;
54557;SDS011;40452;50.080;20.040;2023-08-21T18:36:30;13.70;;;11.30;;
54557;SDS011;40452;50.080;20.040;2023-08-21T18:38:58;14.43;;;11.27;;
54557;SDS011;40452;50.080;20.040;2023-08-21T18:41:27;12.93;;;11.13;;
54557;SDS011;40452;50.080;20.040;2023-08-21T18:43:53;13.68;;;10.30;;
54557;SDS011;40452;50.080;20.040;2023-08-21T18:46:19;12.43;;;10.50;;
54557;SDS011;40452;50.080;20.040;2023-08-21T18:48:44;14.10;;;10.77;;
54557;SDS011;40452;50.080;20.040;2023-08-21T18:51:10;17.63;;;10.23;;
54557;SDS011;40452;50.080;20.040;2023-08-21T18:53:36;14.02;;;10.80;;
54557;SDS011;40452;50.080;20.040;2023-08-21T18:56:01;12.65;;;10.52;;
54557;SDS011;40452;50.080;20.040;2023-08-21T18:58:29;12.02;;;10.50;;
54557;SDS011;40452;50.080;20.040;2023-08-21T19:00:55;15.27;;;11.07;;
54557;SDS011;40452;50.080;20.040;2023-08-21T19:03:21;16.20;;;10.57;;
54557;SDS011;40452;50.080;20.040;2023-08-21T19:05:47;13.35;;;9.93;;
54557;SDS011;40452;50.080;20.040;2023-08-21T19:08:13;14.88;;;10.43;;
54557;SDS011;40452;50.080;20.040;2023-08-21T19:10:39;13.50;;;9.85;;
54557;SDS011;40452;50.080;20.040;2023-08-21T19:13:04;12.95;;;9.95;;
54557;SDS011;40452;50.080;20.040;2023-08-21T19:15:32;13.10;;;10.55;;
54557;SDS011;40452;50.080;20.040;2023-08-21T19:17:58;15.32;;;10.05;;
54557;SDS011;40452;50.080;20.040;2023-08-21T19:20:27;12.65;;;9.82;;
54557;SDS011;40452;50.080;20.040;2023-08-21T19:22:53;14.55;;;9.80;;
54557;SDS011;40452;50.080;20.040;2023-08-21T19:25:18;13.50;;;9.70;;
